الصفحة الرئيسية
METAR-TAF:

METAR-TAF

مطار :

Yuma, أريزونا, الولايات المتحدة

دائرة عرض: 32-37-25N, خط طول: 113-45-50W, ارتفاع: 64 متر

مراقبة الطقس الحالي

تاريخ ووقت الإصدار 18 دقيقة قبل الساعة 09:57UTC
ريح 8 عقدة من الشمال/الشمال الغربي
درجة الحرارة 30°درجة مئوية
الرطوبة 11%
ضغط 1012 hPa
الرؤية: 16.1 كم
سماء صافية

METAR: KNYL 290957Z AUTO 34008KT 10SM CLR 30/M04 A2987 RMK AO2 SLP111 T03001044

زمن: 03:15 (10:15 UTC)

توقعات

التوقعات صالحة من29 الساعة 09 UTC إلى 30 الساعة 09 UTC
ريح 5 عقدةمن اتجاهات متغيرة
الرؤية 10 كم أو أكثر
سماء صافية
أصبح
من 29 الساعة 14 UTC إلى 29 الساعة 16 UTC
ريح 10 عقدة من الشمال الشرقي
الرؤية 10 كم أو أكثر
سماء صافية

TAF: KNYL 2909/3009 VRB05KT 9999 SKC QNH2981INS BECMG 2914/2916 05010KT 9999 SKC QNH2983INS AUTOMATED SENSOR METWATCH T25/2912Z T41/2922Z

أرصاد الطقس والتوقعات من أكثر من 4000 مطار (تقارير الطقس للمطار METAR والتنبؤ بالطقس بالمطارTAF).

المحطات المتاحة هي النقط الصفراء والحمراء على الخريطة.

حرك المؤشر فوق النقطة لمعرفة اسم المحطة.

ثم انقر لمعرفة أرصاد وتوقعات الطقس.

لتغيير الخارطة: اضغط على الأزرار الخضراء مع رمز الصليب الأسود للتكبير. على الزر الأخضر مع شرطة للتصغير، أو على الأسهم الخضراء للخرائط المجاورة.


METAR-TAF: